createdAt,value
2018-09-27T00:01:16.241Z,2.10
2018-09-27T00:03:44.370Z,2.27
2018-09-27T00:06:12.450Z,2.20
2018-09-27T00:08:40.650Z,2.30
2018-09-27T00:11:08.716Z,2.20
2018-09-27T00:13:36.827Z,1.90
2018-09-27T00:16:04.987Z,2.23
2018-09-27T00:18:33.070Z,2.30
2018-09-27T00:21:01.146Z,1.93
2018-09-27T00:23:29.296Z,2.17
2018-09-27T00:25:57.356Z,2.47
2018-09-27T00:28:25.625Z,1.90
2018-09-27T00:30:53.689Z,2.00
2018-09-27T00:33:21.743Z,2.40
2018-09-27T00:35:49.803Z,2.40
2018-09-27T00:38:17.920Z,2.00
2018-09-27T00:40:46.233Z,1.83
2018-09-27T00:43:14.303Z,1.90
2018-09-27T00:45:43.091Z,2.17
2018-09-27T00:48:11.733Z,3.43
2018-09-27T00:50:39.950Z,2.03
2018-09-27T00:53:08.354Z,2.37
2018-09-27T00:55:36.426Z,2.33
2018-09-27T00:58:04.458Z,2.27
2018-09-27T01:00:32.535Z,2.87
2018-09-27T01:03:00.608Z,2.63
2018-09-27T01:05:28.653Z,2.33
2018-09-27T01:07:56.706Z,2.63
2018-09-27T01:10:24.799Z,3.13
2018-09-27T01:12:52.923Z,2.67
2018-09-27T01:15:20.991Z,2.73
2018-09-27T01:17:49.127Z,2.93
2018-09-27T01:20:17.343Z,2.73
2018-09-27T01:22:45.518Z,2.83
2018-09-27T01:25:13.639Z,2.53
2018-09-27T01:27:41.695Z,2.80
2018-09-27T01:30:09.796Z,2.87
2018-09-27T01:32:37.879Z,2.70
2018-09-27T01:35:05.959Z,2.90
2018-09-27T01:37:36.440Z,2.97
2018-09-27T01:40:04.652Z,2.70
2018-09-27T01:42:32.715Z,2.70
2018-09-27T01:45:00.807Z,2.77
2018-09-27T01:47:28.835Z,3.07
2018-09-27T01:50:00.255Z,2.77
2018-09-27T01:52:29.517Z,2.93
2018-09-27T01:54:57.799Z,2.87
2018-09-27T01:57:26.166Z,2.80
2018-09-27T01:59:54.355Z,3.00
2018-09-27T02:02:22.412Z,3.07
2018-09-27T02:04:50.523Z,3.50
2018-09-27T02:07:18.551Z,2.50
2018-09-27T02:09:46.576Z,3.20
2018-09-27T02:12:14.658Z,3.07
2018-09-27T02:14:42.902Z,2.97
2018-09-27T02:17:11.031Z,3.10
2018-09-27T02:19:39.150Z,3.03
2018-09-27T02:22:07.296Z,2.83
2018-09-27T02:24:35.384Z,2.83
2018-09-27T02:27:03.476Z,2.80
2018-09-27T02:29:31.599Z,3.10
2018-09-27T02:31:59.633Z,3.33
2018-09-27T02:34:27.699Z,3.20
2018-09-27T02:36:55.827Z,3.33
2018-09-27T02:39:24.719Z,3.20
2018-09-27T02:41:52.872Z,3.27
2018-09-27T02:44:20.930Z,3.07
2018-09-27T02:46:48.997Z,3.10
2018-09-27T02:49:17.055Z,3.50
2018-09-27T02:51:45.162Z,3.37
2018-09-27T02:54:16.203Z,3.17
2018-09-27T02:56:44.389Z,3.50
2018-09-27T02:59:12.465Z,3.13
2018-09-27T03:01:40.595Z,3.40
2018-09-27T03:04:08.699Z,3.70
2018-09-27T03:06:36.756Z,3.73
2018-09-27T03:09:06.890Z,3.30
2018-09-27T03:11:35.537Z,3.30
2018-09-27T03:14:03.894Z,3.70
2018-09-27T03:16:32.083Z,4.07
2018-09-27T03:19:00.223Z,3.43
2018-09-27T03:21:28.307Z,3.53
2018-09-27T03:23:56.402Z,3.27
2018-09-27T03:26:24.447Z,3.67
2018-09-27T03:28:52.568Z,3.90
2018-09-27T03:31:20.667Z,3.53
2018-09-27T03:33:48.704Z,3.77
2018-09-27T03:36:16.843Z,3.90
2018-09-27T03:38:44.924Z,3.77
2018-09-27T03:41:12.999Z,4.07
2018-09-27T03:43:41.123Z,3.53
2018-09-27T03:46:09.193Z,3.87
2018-09-27T03:48:37.304Z,3.67
2018-09-27T03:51:05.559Z,3.67
2018-09-27T03:53:33.963Z,4.00
2018-09-27T03:56:02.115Z,3.77
2018-09-27T03:58:30.228Z,3.77
2018-09-27T04:00:58.348Z,3.60
2018-09-27T04:03:28.039Z,3.40
2018-09-27T04:05:56.426Z,3.80
2018-09-27T04:08:24.517Z,4.10
2018-09-27T04:10:52.691Z,3.50
2018-09-27T04:13:20.863Z,4.00
2018-09-27T04:15:48.997Z,3.97
2018-09-27T04:18:17.868Z,4.03
2018-09-27T04:20:52.071Z,4.23
2018-09-27T04:23:21.462Z,4.13
2018-09-27T04:25:50.052Z,3.87
2018-09-27T04:28:18.501Z,3.93
2018-09-27T04:30:46.846Z,3.37
2018-09-27T04:33:14.978Z,3.57
2018-09-27T04:35:43.094Z,3.90
2018-09-27T04:38:11.178Z,3.97
2018-09-27T04:40:39.315Z,3.40
2018-09-27T04:43:07.484Z,3.60
2018-09-27T04:45:35.677Z,3.77
2018-09-27T04:48:04.256Z,3.97
2018-09-27T04:50:32.430Z,3.90
2018-09-27T04:53:00.677Z,3.80
2018-09-27T04:55:28.760Z,4.00
2018-09-27T04:57:56.888Z,3.63
2018-09-27T05:00:24.987Z,3.77
2018-09-27T05:02:53.053Z,3.90
2018-09-27T05:05:21.123Z,3.90
2018-09-27T05:07:49.246Z,3.50
2018-09-27T05:10:17.342Z,3.80
2018-09-27T05:12:45.419Z,3.67
2018-09-27T05:15:13.482Z,3.83
2018-09-27T05:17:41.583Z,4.07
2018-09-27T05:20:09.653Z,3.83
2018-09-27T05:22:37.870Z,3.57
2018-09-27T05:25:06.128Z,3.73
2018-09-27T05:27:34.283Z,3.87
2018-09-27T05:30:02.361Z,4.10
2018-09-27T05:32:30.437Z,3.47
2018-09-27T05:34:58.578Z,3.70
2018-09-27T05:37:26.663Z,4.07
2018-09-27T05:39:54.731Z,3.97
2018-09-27T05:42:22.926Z,3.73
2018-09-27T05:44:51.055Z,3.70
2018-09-27T05:47:19.199Z,4.07
2018-09-27T05:49:47.291Z,4.17
2018-09-27T05:52:15.404Z,3.70
2018-09-27T05:54:43.467Z,3.50
2018-09-27T05:57:11.532Z,3.63
2018-09-27T05:59:39.647Z,3.83
2018-09-27T06:02:09.021Z,3.53
2018-09-27T06:04:37.096Z,3.43
2018-09-27T06:07:06.042Z,4.00
2018-09-27T06:09:34.234Z,3.60
2018-09-27T06:12:02.290Z,3.47
2018-09-27T06:14:30.386Z,4.00
2018-09-27T06:16:59.347Z,3.60
2018-09-27T06:19:28.163Z,3.80
2018-09-27T06:21:56.218Z,3.73
2018-09-27T06:24:24.292Z,3.97
2018-09-27T06:29:32.318Z,4.07
2018-09-27T06:32:00.523Z,3.93
2018-09-27T06:34:28.749Z,3.67
2018-09-27T06:36:56.866Z,3.80
2018-09-27T06:39:24.976Z,4.67
2018-09-27T06:41:53.072Z,3.73
2018-09-27T06:44:21.199Z,3.60
2018-09-27T06:46:49.315Z,3.80
2018-09-27T06:49:17.938Z,3.67
2018-09-27T06:51:46.030Z,4.27
2018-09-27T06:54:15.035Z,4.73
2018-09-27T06:56:43.795Z,4.10
2018-09-27T06:59:12.399Z,4.20
2018-09-27T07:01:41.016Z,3.57
2018-09-27T07:04:09.504Z,3.93
2018-09-27T07:06:37.696Z,3.93
2018-09-27T07:09:07.768Z,4.17
2018-09-27T07:11:35.894Z,4.33
2018-09-27T07:14:04.050Z,4.53
2018-09-27T07:16:32.171Z,4.17
2018-09-27T07:19:00.344Z,3.57
2018-09-27T07:21:28.429Z,4.00
2018-09-27T07:23:56.508Z,3.63
2018-09-27T07:26:24.837Z,3.70
2018-09-27T07:28:52.948Z,3.63
2018-09-27T07:31:21.153Z,3.80
2018-09-27T07:33:49.452Z,3.77
2018-09-27T07:36:18.419Z,4.23
2018-09-27T07:38:46.532Z,3.80
2018-09-27T07:41:14.655Z,3.73
2018-09-27T07:43:42.746Z,4.07
2018-09-27T07:46:10.823Z,3.37
2018-09-27T07:48:39.014Z,3.70
2018-09-27T07:51:07.058Z,4.13
2018-09-27T07:53:35.150Z,3.97
2018-09-27T07:56:03.256Z,3.70
2018-09-27T07:58:31.359Z,4.00
2018-09-27T08:00:59.563Z,3.90
2018-09-27T08:03:27.687Z,3.90
2018-09-27T08:05:55.909Z,3.93
2018-09-27T08:08:24.711Z,4.33
2018-09-27T08:10:52.932Z,4.00
2018-09-27T08:13:22.048Z,4.40
2018-09-27T08:15:50.360Z,3.97
2018-09-27T08:18:18.921Z,4.47
2018-09-27T08:20:48.807Z,3.77
2018-09-27T08:23:17.128Z,4.17
2018-09-27T08:25:46.479Z,3.70
2018-09-27T08:28:14.908Z,4.10
2018-09-27T08:30:43.213Z,3.80
2018-09-27T08:33:12.192Z,4.33
2018-09-27T08:35:40.571Z,4.33
2018-09-27T08:38:09.424Z,4.47
2018-09-27T08:40:37.698Z,3.77
2018-09-27T08:45:43.239Z,4.30
2018-09-27T08:48:11.572Z,4.00
2018-09-27T08:50:39.944Z,3.90
2018-09-27T08:53:08.311Z,4.20
2018-09-27T08:55:36.673Z,3.33
2018-09-27T08:58:05.063Z,3.60
2018-09-27T09:00:33.370Z,4.00
2018-09-27T09:03:01.728Z,3.73
2018-09-27T09:05:30.043Z,3.00
2018-09-27T09:07:58.341Z,3.90
2018-09-27T09:10:26.702Z,3.60
2018-09-27T09:12:55.063Z,3.30
2018-09-27T09:15:23.446Z,3.27
2018-09-27T09:17:51.765Z,3.67
2018-09-27T09:20:20.055Z,3.73
2018-09-27T09:22:48.436Z,3.17
2018-09-27T09:25:16.730Z,3.13
2018-09-27T09:27:45.090Z,3.13
2018-09-27T09:30:13.554Z,3.70
2018-09-27T09:32:41.854Z,3.33
2018-09-27T09:35:10.236Z,3.47
2018-09-27T09:37:38.422Z,3.53
2018-09-27T09:40:06.504Z,2.97
2018-09-27T09:42:34.662Z,2.83
2018-09-27T09:45:02.797Z,2.80
2018-09-27T09:47:30.907Z,3.30
2018-09-27T09:49:59.042Z,3.20
2018-09-27T09:52:27.228Z,3.03
2018-09-27T09:54:55.341Z,3.60
2018-09-27T09:57:23.414Z,3.63
2018-09-27T09:59:52.251Z,2.67
2018-09-27T10:02:20.360Z,3.00
2018-09-27T10:04:48.506Z,3.17
2018-09-27T10:07:16.618Z,2.40
2018-09-27T10:09:44.711Z,2.83
2018-09-27T10:12:12.798Z,2.70
2018-09-27T10:14:40.895Z,2.50
2018-09-27T10:17:08.986Z,2.47
2018-09-27T10:19:37.159Z,3.07
2018-09-27T10:22:05.271Z,2.87
2018-09-27T10:24:33.504Z,2.57
2018-09-27T10:27:01.568Z,2.20
2018-09-27T10:29:29.701Z,2.30
2018-09-27T10:31:57.760Z,2.07
2018-09-27T10:34:25.829Z,2.40
2018-09-27T10:36:53.918Z,2.80
2018-09-27T10:39:21.954Z,2.47
2018-09-27T10:41:50.124Z,2.73
2018-09-27T10:44:18.178Z,2.17
2018-09-27T10:46:46.281Z,2.40
2018-09-27T10:49:14.341Z,2.60
2018-09-27T10:51:42.467Z,2.17
2018-09-27T10:54:10.553Z,2.20
2018-09-27T10:56:38.698Z,2.40
2018-09-27T10:59:06.788Z,1.90
2018-09-27T11:01:34.882Z,2.20
2018-09-27T11:04:03.180Z,1.80
2018-09-27T11:06:31.276Z,2.50
2018-09-27T11:08:59.447Z,2.00
2018-09-27T11:11:27.601Z,2.43
2018-09-27T11:13:55.741Z,2.00
2018-09-27T11:16:23.825Z,1.90
2018-09-27T11:18:52.280Z,2.63
2018-09-27T11:21:20.360Z,2.30
2018-09-27T11:23:48.556Z,1.73
2018-09-27T11:26:16.606Z,2.63
2018-09-27T11:28:50.206Z,2.00
2018-09-27T11:31:23.895Z,1.80
2018-09-27T11:33:52.006Z,1.93
2018-09-27T11:36:20.671Z,1.80
2018-09-27T11:38:48.821Z,2.53
2018-09-27T11:41:16.965Z,2.10
2018-09-27T11:43:45.022Z,2.70
2018-09-27T11:46:13.115Z,2.53
2018-09-27T11:48:41.172Z,1.87
2018-09-27T11:51:09.298Z,2.17
2018-09-27T11:53:37.355Z,1.53
2018-09-27T11:56:05.514Z,1.77
2018-09-27T11:58:33.610Z,1.40
2018-09-27T12:01:01.770Z,1.73
2018-09-27T12:03:29.831Z,1.70
2018-09-27T12:05:58.313Z,2.10
2018-09-27T12:08:26.562Z,2.00
2018-09-27T12:10:54.672Z,1.90
2018-09-27T12:13:22.845Z,2.00
2018-09-27T12:15:50.898Z,1.80
2018-09-27T12:18:19.526Z,3.20
2018-09-27T12:20:47.561Z,2.17
2018-09-27T12:23:15.711Z,1.73
2018-09-27T12:25:43.870Z,2.17
2018-09-27T12:28:11.880Z,1.97
2018-09-27T12:30:39.941Z,1.60
2018-09-27T12:33:08.026Z,2.10
2018-09-27T12:35:36.107Z,1.90
2018-09-27T12:38:04.212Z,2.33
2018-09-27T12:40:32.588Z,2.13
2018-09-27T12:43:00.880Z,2.03
2018-09-27T12:45:29.249Z,2.60
2018-09-27T12:47:57.620Z,1.80
2018-09-27T12:50:25.945Z,2.33
2018-09-27T12:52:54.347Z,2.00
2018-09-27T12:55:23.615Z,2.50
2018-09-27T12:57:51.992Z,1.90
2018-09-27T13:00:20.356Z,2.47
2018-09-27T13:02:48.792Z,2.23
2018-09-27T13:05:17.078Z,2.70
2018-09-27T13:07:45.522Z,2.00
2018-09-27T13:10:14.343Z,2.53
2018-09-27T13:12:42.838Z,2.43
2018-09-27T13:15:11.556Z,2.57
2018-09-27T13:17:40.013Z,2.53
2018-09-27T13:20:08.773Z,2.07
2018-09-27T13:22:37.209Z,2.30
2018-09-27T13:25:05.723Z,2.07
2018-09-27T13:27:34.348Z,2.50
2018-09-27T13:30:02.943Z,2.00
2018-09-27T13:32:31.341Z,2.17
2018-09-27T13:35:00.611Z,1.90
2018-09-27T13:37:29.189Z,2.30
2018-09-27T13:39:58.027Z,2.23
2018-09-27T13:42:26.489Z,2.13
2018-09-27T13:44:55.069Z,2.00
2018-09-27T13:47:23.486Z,2.60
2018-09-27T13:49:51.844Z,1.87
2018-09-27T13:52:20.299Z,2.07
2018-09-27T13:54:48.748Z,2.07
2018-09-27T13:57:17.260Z,2.13
2018-09-27T13:59:45.909Z,2.30
2018-09-27T14:02:14.371Z,1.80
2018-09-27T14:04:42.693Z,2.40
2018-09-27T14:07:11.132Z,2.57
2018-09-27T14:09:39.708Z,2.27
2018-09-27T14:12:08.056Z,3.00
2018-09-27T14:14:36.807Z,2.50
2018-09-27T14:17:05.230Z,2.30
2018-09-27T14:19:33.590Z,2.40
2018-09-27T14:22:02.279Z,2.57
2018-09-27T14:24:30.827Z,2.50
2018-09-27T14:26:59.226Z,2.40
2018-09-27T14:29:27.557Z,2.77
2018-09-27T14:31:55.980Z,2.30
2018-09-27T14:34:24.365Z,2.17
2018-09-27T14:36:53.340Z,2.50
2018-09-27T14:39:21.660Z,2.60
2018-09-27T14:41:50.023Z,2.60
2018-09-27T14:44:18.488Z,2.40
2018-09-27T14:46:46.930Z,2.43
2018-09-27T14:49:15.345Z,2.43
2018-09-27T14:51:43.713Z,2.50
2018-09-27T14:54:12.799Z,2.77
2018-09-27T14:56:41.177Z,2.10
2018-09-27T14:59:09.584Z,2.50
2018-09-27T15:01:37.875Z,2.63
2018-09-27T15:04:07.040Z,2.50
2018-09-27T15:06:35.555Z,2.27
2018-09-27T15:09:04.852Z,2.60
2018-09-27T15:11:33.300Z,2.80
2018-09-27T15:14:01.767Z,2.73
2018-09-27T15:16:30.054Z,3.00
2018-09-27T15:18:58.177Z,2.80
2018-09-27T15:21:26.267Z,2.37
2018-09-27T15:23:54.354Z,2.70
2018-09-27T15:26:22.393Z,3.03
2018-09-27T15:28:50.602Z,3.07
2018-09-27T15:31:18.664Z,2.50
2018-09-27T15:33:46.739Z,2.70
2018-09-27T15:36:14.883Z,2.90
2018-09-27T15:38:43.029Z,3.60
2018-09-27T15:41:11.207Z,2.77
2018-09-27T15:43:39.310Z,2.70
2018-09-27T15:46:07.892Z,3.00
2018-09-27T15:48:36.247Z,2.70
2018-09-27T15:51:04.371Z,3.07
2018-09-27T15:53:32.389Z,3.20
2018-09-27T15:56:00.557Z,3.53
2018-09-27T15:58:28.937Z,3.50
2018-09-27T16:00:57.079Z,3.50
2018-09-27T16:03:25.179Z,3.37
2018-09-27T16:05:53.439Z,3.50
2018-09-27T16:08:21.552Z,2.97
2018-09-27T16:10:50.110Z,3.40
2018-09-27T16:13:18.278Z,3.37
2018-09-27T16:15:46.380Z,3.40
2018-09-27T16:18:14.510Z,3.10
2018-09-27T16:20:42.613Z,3.60
2018-09-27T16:23:10.668Z,3.37
2018-09-27T16:25:38.813Z,3.90
2018-09-27T16:28:06.983Z,3.30
2018-09-27T16:30:35.047Z,3.90
2018-09-27T16:33:03.078Z,3.67
2018-09-27T16:35:37.694Z,4.40
2018-09-27T16:38:05.926Z,3.70
2018-09-27T16:40:34.227Z,4.27
2018-09-27T16:43:02.367Z,4.20
2018-09-27T16:45:30.614Z,3.83
2018-09-27T16:47:58.976Z,4.90
2018-09-27T16:50:27.037Z,4.13
2018-09-27T16:52:55.265Z,4.10
2018-09-27T16:55:23.379Z,3.80
2018-09-27T16:57:51.426Z,4.73
2018-09-27T17:00:19.833Z,3.90
2018-09-27T17:02:47.959Z,4.67
2018-09-27T17:05:16.139Z,4.33
2018-09-27T17:07:44.249Z,4.97
2018-09-27T17:10:12.355Z,5.40
2018-09-27T17:12:40.498Z,4.60
2018-09-27T17:15:08.629Z,5.60
2018-09-27T17:17:36.814Z,5.57
2018-09-27T17:20:04.985Z,6.00
2018-09-27T17:22:33.117Z,6.43
2018-09-27T17:25:01.198Z,6.97
2018-09-27T17:27:29.274Z,6.23
2018-09-27T17:29:57.431Z,6.83
2018-09-27T17:32:25.540Z,7.13
2018-09-27T17:34:53.769Z,5.90
2018-09-27T17:37:21.843Z,5.70
2018-09-27T17:39:49.957Z,5.40
2018-09-27T17:42:18.062Z,5.10
2018-09-27T17:44:46.191Z,5.50
2018-09-27T17:47:14.251Z,5.87
2018-09-27T17:49:42.355Z,5.33
2018-09-27T17:52:10.530Z,5.23
2018-09-27T17:54:38.666Z,5.63
2018-09-27T17:57:06.950Z,5.17
2018-09-27T17:59:35.015Z,5.80
2018-09-27T18:02:03.138Z,5.43
2018-09-27T18:07:06.420Z,6.40
2018-09-27T18:09:34.504Z,5.70
2018-09-27T18:12:03.050Z,4.87
2018-09-27T18:14:31.146Z,4.70
2018-09-27T18:16:59.254Z,5.00
2018-09-27T18:19:27.401Z,5.30
2018-09-27T18:21:55.491Z,5.07
2018-09-27T18:24:23.665Z,5.90
2018-09-27T18:26:51.802Z,4.83
2018-09-27T18:29:19.988Z,4.90
2018-09-27T18:31:48.072Z,5.13
2018-09-27T18:34:16.224Z,5.53
2018-09-27T18:36:44.909Z,4.63
2018-09-27T18:39:13.488Z,5.07
2018-09-27T18:41:42.061Z,4.97
2018-09-27T18:44:10.346Z,11.10
2018-09-27T18:46:38.777Z,5.70
2018-09-27T18:49:07.363Z,6.83
2018-09-27T18:51:35.615Z,5.40
2018-09-27T18:54:03.852Z,5.70
2018-09-27T18:56:32.072Z,6.70
2018-09-27T18:59:00.482Z,5.60
2018-09-27T19:01:28.647Z,6.17
2018-09-27T19:03:56.834Z,5.90
2018-09-27T19:06:24.964Z,5.70
2018-09-27T19:08:53.005Z,5.57
2018-09-27T19:11:21.202Z,5.53
2018-09-27T19:13:49.288Z,6.13
2018-09-27T19:16:17.487Z,6.50
2018-09-27T19:18:45.583Z,5.73
2018-09-27T19:21:13.787Z,6.70
2018-09-27T19:23:41.880Z,5.40
2018-09-27T19:26:10.085Z,5.30
2018-09-27T19:28:38.218Z,5.10
2018-09-27T19:31:06.389Z,6.40
2018-09-27T19:33:34.480Z,6.50
2018-09-27T19:36:02.581Z,6.87
2018-09-27T19:38:30.597Z,5.70
2018-09-27T19:40:58.723Z,7.30
2018-09-27T19:43:26.993Z,8.10
2018-09-27T19:45:55.043Z,5.80
2018-09-27T19:48:23.140Z,6.17
2018-09-27T19:50:51.246Z,5.97
2018-09-27T19:53:19.290Z,5.83
2018-09-27T19:55:47.370Z,6.53
2018-09-27T19:58:15.538Z,6.57
2018-09-27T20:00:43.546Z,5.30
2018-09-27T20:03:11.779Z,6.33
2018-09-27T20:05:39.900Z,5.87
2018-09-27T20:08:08.208Z,6.00
2018-09-27T20:10:36.440Z,6.90
2018-09-27T20:13:04.633Z,7.60
2018-09-27T20:15:32.786Z,8.57
2018-09-27T20:18:01.344Z,8.10
2018-09-27T20:20:29.433Z,8.60
2018-09-27T20:22:57.615Z,7.97
2018-09-27T20:25:25.698Z,7.03
2018-09-27T20:27:53.839Z,7.80
2018-09-27T20:30:21.974Z,7.83
2018-09-27T20:32:50.128Z,8.73
2018-09-27T20:35:18.243Z,8.47
2018-09-27T20:37:46.498Z,7.83
2018-09-27T20:40:14.601Z,7.83
2018-09-27T20:42:42.633Z,7.20
2018-09-27T20:45:10.746Z,7.90
2018-09-27T20:47:38.952Z,7.73
2018-09-27T20:50:07.086Z,7.77
2018-09-27T20:52:35.231Z,7.53
2018-09-27T20:55:03.302Z,6.93
2018-09-27T20:57:31.405Z,7.30
2018-09-27T20:59:59.498Z,6.93
2018-09-27T21:02:27.788Z,7.67
2018-09-27T21:04:55.850Z,6.97
2018-09-27T21:07:23.928Z,6.90
2018-09-27T21:09:52.990Z,6.93
2018-09-27T21:12:21.111Z,7.03
2018-09-27T21:14:50.941Z,6.90
2018-09-27T21:17:19.288Z,7.13
2018-09-27T21:19:47.660Z,8.03
2018-09-27T21:22:15.970Z,7.10
2018-09-27T21:24:44.412Z,7.37
2018-09-27T21:27:12.754Z,7.40
2018-09-27T21:29:41.078Z,7.80
2018-09-27T21:32:09.568Z,7.23
2018-09-27T21:34:38.029Z,8.40
2018-09-27T21:37:06.405Z,7.10
2018-09-27T21:39:34.863Z,6.70
2018-09-27T21:42:03.397Z,7.03
2018-09-27T21:44:31.737Z,7.43
2018-09-27T21:47:00.207Z,7.03
2018-09-27T21:49:28.611Z,6.87
2018-09-27T21:51:57.076Z,6.87
2018-09-27T21:54:26.681Z,6.40
2018-09-27T21:56:55.039Z,5.90
2018-09-27T21:59:23.467Z,6.67
2018-09-27T22:01:51.948Z,6.30
2018-09-27T22:04:20.058Z,6.83
2018-09-27T22:06:49.113Z,6.60
2018-09-27T22:09:17.199Z,7.83
2018-09-27T22:11:45.546Z,8.80
2018-09-27T22:14:13.809Z,7.27
2018-09-27T22:16:41.955Z,6.10
2018-09-27T22:19:10.167Z,8.60
2018-09-27T22:21:38.944Z,6.77
2018-09-27T22:24:10.647Z,6.17
2018-09-27T22:26:38.902Z,5.77
2018-09-27T22:29:07.053Z,6.03
2018-09-27T22:31:35.266Z,6.30
2018-09-27T22:34:03.780Z,5.30
2018-09-27T22:36:31.958Z,5.10
2018-09-27T22:39:00.913Z,5.23
2018-09-27T22:41:31.181Z,5.37
2018-09-27T22:43:59.341Z,5.60
2018-09-27T22:46:27.423Z,5.30
2018-09-27T22:48:55.483Z,5.17
2018-09-27T22:51:23.616Z,4.83
2018-09-27T22:53:51.860Z,4.63
2018-09-27T22:56:20.182Z,5.03
2018-09-27T22:58:48.289Z,5.40
2018-09-27T23:01:16.480Z,4.73
2018-09-27T23:03:44.535Z,4.50
2018-09-27T23:06:12.790Z,4.63
2018-09-27T23:08:40.918Z,5.90
2018-09-27T23:11:09.149Z,5.57
2018-09-27T23:13:37.302Z,5.23
2018-09-27T23:16:05.530Z,5.07
2018-09-27T23:18:33.711Z,4.80
2018-09-27T23:21:01.782Z,4.67
2018-09-27T23:23:29.998Z,4.90
2018-09-27T23:25:58.264Z,4.53
2018-09-27T23:28:26.390Z,4.80
2018-09-27T23:30:54.657Z,5.00
2018-09-27T23:33:22.775Z,5.20
2018-09-27T23:35:50.919Z,5.00
2018-09-27T23:38:19.064Z,5.50
2018-09-27T23:40:47.234Z,5.27
2018-09-27T23:43:15.379Z,5.47
2018-09-27T23:45:43.555Z,4.87
2018-09-27T23:48:11.751Z,4.87
2018-09-27T23:50:39.859Z,4.70
2018-09-27T23:53:07.946Z,4.40
2018-09-27T23:55:36.094Z,4.53
2018-09-27T23:58:04.182Z,4.67
